Harman, West Virginia
Current Conditions -  °F | °C
As of 2:05 PM on Thursday 23 Oct 2014 (Local Time) from KEKN Reporting Station
Overcast Overcast  
Wind Chill: 47°   Ceiling: 1500
Heat Index: 47°   Visibility: 10mi
Dew Point: 43°   Wind: 3mph
Humidity: 86%   Direction: 280°W
Pressure: 30.12"   Gusts: NA
Location:  38.92°N, 79.53°W
Report Text: KEKN 231805Z AUTO 28003KT 10SM OVC015 08/06 A3012 RMK AO2 T00830061 TSNO
Loading
Personal Weather Stations






























Interactive Weather Map
Tropical Storm Tracking
New forecast layout! Learn more

10-Day Weather Forecast

Advertisements
Track Severe Weather on mobile